Time;durP1;ratioP1;P1;durP2;ratioP2;P2;SDS_P1;SDS_P2;PMS_P1;PMS_P2;Temp;Humidity;BMP_temperature;BMP_pressure;BME280_temperature;BME280_humidity;BME280_pressure;Samples;Min_cycle;Max_cycle;Signal;HPM_P1;HPM_P2
2023/07/13 00:01:09;;;;;;;2.40;1.15;;;;;;;21.14;49.76;100261.38;4958584;28;20054;-74
2023/07/13 00:03:36;;;;;;;4.97;1.33;;;;;;;21.09;49.77;100269.03;4960751;28;20050;-73
2023/07/13 00:06:03;;;;;;;2.95;1.70;;;;;;;21.06;50.08;100274.72;4958886;28;20055;-74
2023/07/13 00:08:32;;;;;;;1.50;0.88;;;;;;;21.02;50.63;100279.53;4964358;28;20042;-74
2023/07/13 00:11:02;;;;;;;1.67;1.20;;;;;;;20.99;50.84;100284.31;4965336;28;20049;-74
2023/07/13 00:13:30;;;;;;;6.70;1.27;;;;;;;20.95;51.01;100285.59;4964248;28;20535;-74
2023/07/13 00:15:58;;;;;;;4.35;1.20;;;;;;;20.89;50.93;100278.94;4972081;28;20054;-74
2023/07/13 00:18:25;;;;;;;2.83;1.30;;;;;;;20.94;50.90;100298.19;4957253;28;20089;-73
2023/07/13 00:20:52;;;;;;;2.97;1.00;;;;;;;20.87;50.88;100291.69;4962790;28;20515;-73
2023/07/13 00:23:20;;;;;;;2.33;0.77;;;;;;;20.86;50.94;100295.38;4983084;28;20125;-73
2023/07/13 00:25:47;;;;;;;4.43;1.00;;;;;;;20.82;50.88;100293.09;4976031;28;20051;-74
2023/07/13 00:28:14;;;;;;;3.33;1.20;;;;;;;20.76;51.12;100305.28;4972938;28;20142;-73
2023/07/13 00:30:41;;;;;;;5.72;1.10;;;;;;;20.62;51.51;100290.38;4961726;28;20053;-74
2023/07/13 00:33:07;;;;;;;4.43;1.10;;;;;;;20.59;51.86;100297.88;4962857;28;20409;-73
2023/07/13 00:35:46;;;;;;;3.53;0.93;;;;;;;20.51;52.22;100290.50;4944268;28;20606;-72
2023/07/13 00:38:12;;;;;;;3.90;0.90;;;;;;;20.48;52.35;100285.38;4952017;28;20061;-73
2023/07/13 00:40:39;;;;;;;4.22;1.20;;;;;;;20.32;52.54;100277.81;4959165;28;20138;-73
2023/07/13 00:43:15;;;;;;;2.58;0.98;;;;;;;20.33;52.71;100298.34;4961383;28;20130;-73
2023/07/13 00:45:43;;;;;;;3.00;1.00;;;;;;;20.35;52.79;100306.28;4958400;28;20821;-73
2023/07/13 00:48:13;;;;;;;1.40;0.82;;;;;;;20.33;53.21;100305.56;4962687;28;20058;-73
2023/07/13 00:50:40;;;;;;;3.73;1.00;;;;;;;20.23;53.53;100304.69;4979011;28;20443;-73
2023/07/13 00:53:07;;;;;;;3.40;1.10;;;;;;;20.07;54.05;100291.75;4943008;28;20043;-74
2023/07/13 00:55:35;;;;;;;2.75;1.00;;;;;;;19.96;54.42;100290.00;4960709;28;20046;-74
2023/07/13 00:58:04;;;;;;;2.22;1.00;;;;;;;20.06;54.84;100305.31;4956064;28;20421;-74
2023/07/13 01:00:31;;;;;;;2.45;0.90;;;;;;;19.94;54.85;100297.34;4966130;28;20047;-74
2023/07/13 01:02:57;;;;;;;3.65;0.93;;;;;;;19.90;55.29;100300.44;4968765;28;22820;-73
2023/07/13 01:05:25;;;;;;;2.63;1.17;;;;;;;19.98;55.40;100318.59;4969331;28;20053;-74
2023/07/13 01:07:55;;;;;;;6.75;1.17;;;;;;;20.00;55.11;100316.59;4962681;28;20122;-74
2023/07/13 01:10:23;;;;;;;3.60;1.00;;;;;;;20.02;55.50;100306.56;4982265;28;22206;-74
2023/07/13 01:12:50;;;;;;;3.28;1.00;;;;;;;20.00;55.32;100304.00;4965883;28;20054;-75
2023/07/13 01:15:43;;;;;;;4.25;0.93;;;;;;;20.07;55.34;100309.69;4966493;28;20090;-73
2023/07/13 01:18:14;;;;;;;2.10;1.02;;;;;;;20.04;54.85;100305.44;4966921;28;20158;-74
2023/07/13 01:20:48;;;;;;;1.77;0.82;;;;;;;20.00;55.04;100313.91;4968008;28;20126;-74
2023/07/13 01:23:15;;;;;;;2.53;1.00;;;;;;;19.89;55.13;100304.94;4966908;28;20098;-74
2023/07/13 01:25:42;;;;;;;2.90;0.73;;;;;;;19.85;55.16;100308.88;4964774;28;20522;-74
2023/07/13 01:28:09;;;;;;;4.72;1.10;;;;;;;19.75;56.00;100305.31;4957827;28;20050;-74
2023/07/13 01:30:39;;;;;;;3.17;1.15;;;;;;;19.74;56.03;100303.59;4983769;28;20138;-75
2023/07/13 01:33:08;;;;;;;3.45;1.10;;;;;;;19.68;56.63;100296.06;4966889;28;20059;-75
2023/07/13 01:35:35;;;;;;;3.15;0.90;;;;;;;19.61;56.93;100301.13;4967897;28;20049;-75
2023/07/13 01:38:02;;;;;;;3.78;0.88;;;;;;;19.52;57.23;100304.56;4958573;28;20043;-74
2023/07/13 01:40:29;;;;;;;3.17;1.20;;;;;;;19.45;57.76;100299.84;4953535;28;20042;-74
2023/07/13 01:42:58;;;;;;;4.15;1.05;;;;;;;19.42;57.89;100297.41;4962363;28;20157;-75
2023/07/13 01:45:25;;;;;;;4.70;1.20;;;;;;;19.35;58.38;100301.63;4966785;28;20490;-75
2023/07/13 01:47:52;;;;;;;2.28;1.10;;;;;;;19.32;58.38;100297.34;4980428;28;20136;-75
2023/07/13 01:50:18;;;;;;;7.45;1.17;;;;;;;19.33;58.81;100298.22;4974800;28;20067;-74
2023/07/13 01:52:46;;;;;;;6.70;1.65;;;;;;;19.35;58.73;100312.38;4985481;28;20119;-75
2023/07/13 01:55:13;;;;;;;2.05;0.90;;;;;;;19.30;58.41;100301.16;4978615;28;20048;-75
2023/07/13 01:57:40;;;;;;;3.33;0.90;;;;;;;19.30;58.93;100307.38;4970915;28;20459;-74
2023/07/13 02:00:09;;;;;;;3.25;1.15;;;;;;;19.26;58.70;100311.28;4950376;28;20096;-75
2023/07/13 02:02:36;;;;;;;3.53;1.02;;;;;;;19.16;59.35;100311.22;4968354;28;20418;-74
2023/07/13 02:05:06;;;;;;;3.90;1.00;;;;;;;19.25;59.38;100310.44;4965047;28;20121;-73
2023/07/13 02:07:33;;;;;;;3.38;1.02;;;;;;;19.30;59.62;100309.22;4954412;28;20053;-75
2023/07/13 02:10:00;;;;;;;3.35;1.00;;;;;;;19.30;58.17;100306.53;4964822;28;20515;-75
2023/07/13 02:12:27;;;;;;;3.08;1.23;;;;;;;19.29;57.61;100308.34;4980627;28;20046;-75
2023/07/13 02:14:53;;;;;;;4.90;0.90;;;;;;;19.27;57.84;100308.47;4982602;28;20742;-73
2023/07/13 02:17:20;;;;;;;5.43;1.05;;;;;;;19.13;58.00;100287.31;4956972;28;20043;-74
2023/07/13 02:19:46;;;;;;;1.90;1.15;;;;;;;19.31;58.51;100317.13;4981919;28;20455;-74
2023/07/13 02:22:14;;;;;;;2.92;1.00;;;;;;;19.31;59.00;100321.66;4972256;28;20055;-74
2023/07/13 02:24:41;;;;;;;2.33;1.40;;;;;;;18.97;57.83;100264.56;4975685;28;20074;-74
2023/07/13 02:27:08;;;;;;;2.88;1.10;;;;;;;19.28;56.15;100320.91;4967566;28;21172;-73
2023/07/13 02:29:36;;;;;;;3.05;0.90;;;;;;;19.24;56.50;100308.72;4972729;28;20050;-74
2023/07/13 02:32:03;;;;;;;3.90;1.17;;;;;;;19.34;57.12;100318.72;4968283;28;20055;-74
2023/07/13 02:34:31;;;;;;;4.00;1.23;;;;;;;19.33;57.26;100325.91;4983706;28;20790;-74
2023/07/13 02:37:00;;;;;;;3.40;0.75;;;;;;;19.33;58.04;100317.84;4955732;28;20058;-73
2023/07/13 02:39:27;;;;;;;4.13;0.75;;;;;;;19.44;57.50;100320.47;4979138;28;20098;-74
2023/07/13 02:41:53;;;;;;;2.72;0.73;;;;;;;19.34;57.43;100297.22;4955246;28;20427;-74
2023/07/13 02:44:21;;;;;;;5.03;1.13;;;;;;;19.22;57.30;100294.59;4967047;28;20047;-74
2023/07/13 02:46:47;;;;;;;1.45;0.60;;;;;;;19.28;57.75;100320.91;4972721;28;20054;-73
2023/07/13 02:49:14;;;;;;;1.90;0.90;;;;;;;19.00;58.51;100292.00;4974814;28;20047;-74
2023/07/13 02:51:41;;;;;;;1.83;0.80;;;;;;;19.18;58.36;100327.19;4972442;28;20607;-73
2023/07/13 02:54:09;;;;;;;3.90;0.98;;;;;;;19.18;58.42;100325.38;4969095;28;20633;-74
2023/07/13 02:56:38;;;;;;;4.32;1.15;;;;;;;19.16;58.59;100335.38;4975496;28;20051;-72
2023/07/13 02:59:05;;;;;;;4.55;0.98;;;;;;;19.13;59.31;100332.94;4989447;28;20074;-72
2023/07/13 03:01:35;;;;;;;3.10;1.00;;;;;;;19.12;59.07;100338.44;4995300;28;20070;-73
2023/07/13 03:04:02;;;;;;;2.65;1.02;;;;;;;19.11;59.37;100347.47;4965727;28;20499;-73
2023/07/13 03:06:31;;;;;;;5.47;1.00;;;;;;;19.08;58.93;100345.88;4957083;28;20057;-73
2023/07/13 03:08:58;;;;;;;5.82;1.30;;;;;;;19.05;60.00;100343.44;4956553;28;20411;-73
2023/07/13 03:11:25;;;;;;;4.80;1.05;;;;;;;19.06;58.88;100338.94;4958905;28;20046;-74
2023/07/13 03:13:53;;;;;;;2.78;0.90;;;;;;;19.16;58.51;100353.31;4960699;28;20102;-73
2023/07/13 03:16:20;;;;;;;3.17;1.00;;;;;;;19.11;58.23;100361.75;4976971;28;20062;-74
2023/07/13 03:18:47;;;;;;;5.25;1.10;;;;;;;19.00;57.98;100356.44;4956619;28;20656;-74
2023/07/13 03:21:15;;;;;;;5.03;1.40;;;;;;;18.89;57.54;100354.59;4967862;28;20094;-73
2023/07/13 03:23:41;;;;;;;2.15;0.85;;;;;;;18.85;56.81;100368.41;4968137;28;20118;-73
2023/07/13 03:26:12;;;;;;;3.40;0.60;;;;;;;18.79;57.07;100356.34;4965514;28;20345;-74
2023/07/13 03:28:40;;;;;;;3.75;1.10;;;;;;;18.76;56.66;100370.00;4960477;28;20207;-73
2023/07/13 03:31:11;;;;;;;2.78;0.90;;;;;;;18.76;56.35;100379.88;4967009;28;20486;-74
2023/07/13 03:33:38;;;;;;;5.20;1.00;;;;;;;18.77;56.83;100384.28;4977922;28;20053;-75
2023/07/13 03:36:06;;;;;;;3.97;0.80;;;;;;;18.76;57.40;100380.72;4955865;28;20046;-74
2023/07/13 03:38:33;;;;;;;5.32;1.30;;;;;;;18.73;57.80;100382.84;4961604;28;20074;-75
2023/07/13 03:41:00;;;;;;;3.58;1.15;;;;;;;18.76;58.19;100395.97;4965018;28;20053;-74
2023/07/13 03:43:28;;;;;;;3.90;1.15;;;;;;;18.75;58.95;100395.13;4969246;28;20047;-74
2023/07/13 03:45:56;;;;;;;2.47;1.13;;;;;;;18.70;59.05;100397.34;4974728;28;20656;-73
2023/07/13 03:48:22;;;;;;;2.72;1.13;;;;;;;18.65;59.46;100402.22;4990136;28;20176;-73
2023/07/13 03:50:49;;;;;;;3.05;1.33;;;;;;;18.61;59.89;100398.06;4981521;28;20039;-73
2023/07/13 03:53:16;;;;;;;4.57;1.15;;;;;;;18.52;60.44;100386.22;4984604;28;20047;-74
2023/07/13 03:55:44;;;;;;;5.38;1.30;;;;;;;18.51;60.41;100384.53;4982287;28;20054;-75
2023/07/13 03:58:28;;;;;;;4.30;1.38;;;;;;;18.56;60.28;100395.75;4953419;28;20070;-74
2023/07/13 04:00:57;;;;;;;3.25;1.48;;;;;;;18.55;61.07;100402.09;4979931;28;20055;-74
2023/07/13 04:03:27;;;;;;;2.90;1.35;;;;;;;18.49;60.84;100394.50;4973398;28;20137;-74
2023/07/13 04:05:59;;;;;;;;;;;;;;;18.54;60.54;100413.78;4976113;28;20039;-74
2023/07/13 04:08:28;;;;;;;3.05;1.10;;;;;;;18.47;60.21;100403.66;4966926;28;19929;-74
2023/07/13 04:10:57;;;;;;;5.80;1.08;;;;;;;18.46;60.02;100400.13;4971839;28;20039;-73
2023/07/13 04:13:24;;;;;;;6.40;1.15;;;;;;;18.44;60.43;100401.22;4972373;28;20055;-74
2023/07/13 04:15:52;;;;;;;3.08;1.05;;;;;;;18.48;61.01;100408.03;4992356;28;20082;-75
2023/07/13 04:18:19;;;;;;;4.43;1.20;;;;;;;18.50;60.33;100415.00;4967370;28;20134;-73
2023/07/13 04:20:47;;;;;;;5.15;1.17;;;;;;;18.39;60.47;100390.88;4993478;28;20106;-73
2023/07/13 04:23:14;;;;;;;3.63;1.30;;;;;;;18.43;60.45;100394.13;4999174;28;20051;-74
2023/07/13 04:25:49;;;;;;;4.40;1.10;;;;;;;18.44;61.19;100404.75;4978006;28;20065;-74
2023/07/13 04:28:17;;;;;;;3.90;1.00;;;;;;;18.45;60.86;100400.22;4970695;28;20495;-74
2023/07/13 04:30:44;;;;;;;7.70;1.65;;;;;;;18.51;61.77;100411.34;4964298;28;20042;-74
2023/07/13 04:33:11;;;;;;;7.30;1.27;;;;;;;18.46;61.01;100407.31;4964718;28;20402;-74
2023/07/13 04:35:38;;;;;;;3.40;1.40;;;;;;;18.54;60.42;100412.94;4983200;28;20434;-75
2023/07/13 04:38:05;;;;;;;3.08;1.20;;;;;;;18.54;60.36;100413.78;4972720;28;20047;-74
2023/07/13 04:40:32;;;;;;;6.70;1.30;;;;;;;18.49;60.23;100402.56;4986242;28;20129;-75
2023/07/13 04:42:59;;;;;;;4.63;0.90;;;;;;;18.52;60.61;100401.47;4985270;28;20119;-75
2023/07/13 04:45:26;;;;;;;3.90;1.15;;;;;;;18.60;60.23;100408.91;4975852;28;20046;-76
2023/07/13 04:47:52;;;;;;;4.38;1.08;;;;;;;18.64;58.70;100416.59;4980736;28;20046;-74
2023/07/13 04:50:22;;;;;;;9.73;1.35;;;;;;;18.56;59.17;100392.22;4980322;28;20507;-74
2023/07/13 04:52:50;;;;;;;3.65;1.00;;;;;;;18.56;59.20;100402.94;4967674;28;20057;-74
2023/07/13 04:55:18;;;;;;;3.08;0.88;;;;;;;18.55;59.09;100395.84;4986388;28;20054;-74
2023/07/13 04:57:46;;;;;;;3.53;1.13;;;;;;;18.67;58.87;100415.50;4982535;28;20139;-76
2023/07/13 05:00:15;;;;;;;2.35;0.80;;;;;;;18.65;59.37;100396.84;4968004;28;20050;-75
2023/07/13 05:02:44;;;;;;;4.50;1.50;;;;;;;18.75;58.49;100410.38;4988361;28;20070;-74
2023/07/13 05:05:11;;;;;;;2.58;0.95;;;;;;;18.74;57.81;100401.47;4984188;28;20066;-74
2023/07/13 05:07:38;;;;;;;3.58;0.98;;;;;;;18.73;58.46;100404.28;4999986;28;20073;-74
2023/07/13 05:10:05;;;;;;;3.70;1.08;;;;;;;18.78;57.21;100421.72;4968608;28;20058;-74
2023/07/13 05:12:31;;;;;;;4.50;0.85;;;;;;;18.75;57.95;100413.03;4984372;28;20051;-76
2023/07/13 05:14:58;;;;;;;2.67;0.80;;;;;;;18.82;56.17;100423.19;4990293;28;20062;-74
2023/07/13 05:17:26;;;;;;;3.70;0.82;;;;;;;18.83;58.18;100416.84;4985301;28;20134;-74
2023/07/13 05:19:53;;;;;;;3.50;1.05;;;;;;;18.93;58.23;100424.97;4982257;28;20050;-73
2023/07/13 05:22:21;;;;;;;2.22;0.70;;;;;;;18.95;57.35;100420.34;5004209;28;20042;-74
2023/07/13 05:24:48;;;;;;;2.80;1.15;;;;;;;19.01;56.80;100425.22;4970533;28;20042;-74
2023/07/13 05:27:15;;;;;;;4.43;1.02;;;;;;;19.06;56.47;100417.63;4977632;28;20156;-74
2023/07/13 05:29:42;;;;;;;6.28;1.30;;;;;;;19.04;56.20;100408.88;4982625;28;20078;-74
2023/07/13 05:32:08;;;;;;;2.17;0.77;;;;;;;19.09;55.58;100411.16;4980903;28;20530;-75
2023/07/13 05:34:35;;;;;;;1.77;0.60;;;;;;;19.22;54.56;100433.31;5000769;28;20097;-76
2023/07/13 05:37:02;;;;;;;3.78;0.80;;;;;;;19.16;55.10;100415.06;4989091;28;20078;-74
2023/07/13 05:39:29;;;;;;;4.60;1.10;;;;;;;19.25;53.11;100430.41;4986884;28;20051;-75
2023/07/13 05:41:55;;;;;;;3.60;0.75;;;;;;;19.31;54.13;100427.22;4969516;28;20086;-75
2023/07/13 05:44:22;;;;;;;4.20;0.85;;;;;;;19.31;55.25;100431.72;4970126;28;20070;-76
2023/07/13 05:46:49;;;;;;;4.20;0.60;;;;;;;19.32;53.80;100428.06;4968858;28;20499;-76
2023/07/13 05:49:16;;;;;;;6.15;0.80;;;;;;;19.32;53.28;100422.69;4959411;28;20139;-75
2023/07/13 05:51:42;;;;;;;2.78;0.80;;;;;;;19.32;53.43;100436.13;4967095;28;20415;-75
2023/07/13 05:54:09;;;;;;;4.50;0.88;;;;;;;19.32;53.86;100430.75;4971342;28;20046;-75
2023/07/13 05:56:37;;;;;;;4.03;0.82;;;;;;;19.43;54.06;100441.44;4965440;28;20145;-75
2023/07/13 05:59:04;;;;;;;2.22;0.70;;;;;;;19.53;54.53;100437.91;4974538;28;20137;-74
2023/07/13 06:01:31;;;;;;;4.50;0.82;;;;;;;19.54;53.38;100433.38;4966914;28;20046;-74
2023/07/13 06:03:57;;;;;;;3.22;0.95;;;;;;;19.52;52.98;100438.88;4981090;28;20117;-75
2023/07/13 06:06:25;;;;;;;2.63;0.80;;;;;;;19.48;53.60;100433.88;4967578;28;20074;-75
2023/07/13 06:08:52;;;;;;;3.47;0.80;;;;;;;19.58;54.02;100441.06;4960924;28;20139;-74
2023/07/13 06:11:22;;;;;;;3.30;0.98;;;;;;;19.65;53.96;100440.56;4968827;28;20038;-74
2023/07/13 06:13:50;;;;;;;6.47;1.00;;;;;;;19.76;54.53;100446.72;4973168;28;20053;-74
2023/07/13 06:16:17;;;;;;;4.53;0.90;;;;;;;19.93;54.63;100451.53;4950510;28;20075;-75
2023/07/13 06:18:44;;;;;;;3.40;0.80;;;;;;;20.06;53.09;100440.56;4984104;28;20133;-75
2023/07/13 06:21:17;;;;;;;2.60;0.85;;;;;;;20.25;52.99;100446.06;4996994;28;20469;-75
2023/07/13 06:23:48;;;;;;;6.90;1.15;;;;;;;20.47;52.59;100449.59;4985454;28;20038;-74
2023/07/13 06:26:17;;;;;;;6.82;1.20;;;;;;;20.66;51.08;100455.09;4983480;28;20049;-75
2023/07/13 06:28:44;;;;;;;5.10;1.52;;;;;;;20.83;50.48;100445.53;4974308;28;20051;-74
2023/07/13 06:31:12;;;;;;;3.38;1.08;;;;;;;21.08;49.55;100439.66;4970212;28;20047;-76
2023/07/13 06:33:39;;;;;;;2.75;1.00;;;;;;;21.27;49.57;100439.72;4979383;28;20051;-74
2023/07/13 06:36:09;;;;;;;1.95;0.80;;;;;;;21.76;48.62;100453.22;4963283;28;20189;-74
2023/07/13 06:38:37;;;;;;;3.70;0.93;;;;;;;22.36;47.11;100435.84;4950989;28;20191;-74
2023/07/13 06:41:05;;;;;;;3.13;0.80;;;;;;;23.04;45.82;100453.50;4962498;28;20046;-75
2023/07/13 06:43:32;;;;;;;7.03;1.10;;;;;;;22.93;45.61;100458.25;4977541;28;20057;-74
2023/07/13 06:45:59;;;;;;;5.30;1.00;;;;;;;23.00;45.91;100459.34;4962589;28;20057;-74
2023/07/13 06:48:27;;;;;;;3.15;0.77;;;;;;;23.05;46.49;100457.03;4960522;28;20067;-74
2023/07/13 06:50:54;;;;;;;4.18;1.15;;;;;;;23.19;44.93;100459.22;4967495;28;20093;-74
2023/07/13 06:53:20;;;;;;;3.55;0.85;;;;;;;23.22;44.39;100468.88;4981661;28;20039;-74
2023/07/13 06:55:47;;;;;;;4.07;0.85;;;;;;;22.98;43.46;100447.84;4968899;28;20055;-75
2023/07/13 06:58:17;;;;;;;1.92;0.65;;;;;;;22.96;44.38;100466.06;4958759;28;20046;-75
2023/07/13 07:00:44;;;;;;;4.22;0.80;;;;;;;22.96;46.68;100442.59;4944877;28;20058;-74
2023/07/13 07:03:11;;;;;;;11.25;2.55;;;;;;;23.48;44.20;100464.44;4958045;28;20074;-75
2023/07/13 07:05:37;;;;;;;3.53;0.70;;;;;;;23.62;43.13;100471.19;4961530;28;20051;-74
2023/07/13 07:08:04;;;;;;;3.53;1.00;;;;;;;23.47;43.03;100461.88;4965245;28;20043;-76
2023/07/13 07:10:31;;;;;;;6.28;1.60;;;;;;;23.52;44.61;100471.28;4950791;28;20051;-74
2023/07/13 07:12:59;;;;;;;3.60;0.70;;;;;;;23.41;43.57;100464.22;4965487;28;20078;-74
2023/07/13 07:15:26;;;;;;;3.85;0.93;;;;;;;23.70;44.12;100463.19;4961708;28;20255;-74
2023/07/13 07:17:53;;;;;;;2.88;1.00;;;;;;;23.82;43.86;100461.94;4972396;28;20419;-76
2023/07/13 07:20:20;;;;;;;3.00;0.60;;;;;;;23.81;43.77;100435.03;4950507;28;20092;-74
2023/07/13 07:22:47;;;;;;;4.25;0.95;;;;;;;24.13;42.92;100467.78;4958445;28;20087;-76
2023/07/13 07:25:14;;;;;;;6.75;0.90;;;;;;;24.24;41.92;100469.44;4957305;28;20414;-73
2023/07/13 07:27:40;;;;;;;3.38;0.60;;;;;;;24.11;41.84;100467.91;4972219;28;20061;-73
2023/07/13 07:30:11;;;;;;;3.33;0.80;;;;;;;24.01;42.04;100478.00;4936869;28;20102;-74
2023/07/13 07:32:41;;;;;;;;;;;;;;;23.94;42.63;100474.19;4964046;28;20448;-75
2023/07/13 07:35:23;;;;;;;2.10;0.80;;;;;;;23.78;41.42;100450.56;4957693;28;20346;-74
2023/07/13 07:37:51;;;;;;;3.08;0.80;;;;;;;23.65;41.19;100481.72;4975866;28;20074;-74
2023/07/13 07:40:19;;;;;;;2.38;0.75;;;;;;;23.60;41.28;100471.38;4952919;28;20047;-76
2023/07/13 07:42:48;;;;;;;2.65;0.60;;;;;;;23.52;40.76;100460.47;4955448;28;20047;-74
2023/07/13 07:45:15;;;;;;;1.20;0.55;;;;;;;23.77;40.95;100477.75;4953256;28;20051;-74
2023/07/13 07:47:44;;;;;;;2.17;0.70;;;;;;;24.04;40.15;100471.44;4965774;28;20058;-75
2023/07/13 07:50:11;;;;;;;7.93;0.60;;;;;;;24.01;39.50;100478.00;4966813;28;20070;-75
2023/07/13 07:52:37;;;;;;;3.10;0.85;;;;;;;23.98;40.25;100482.88;4964509;28;20058;-76
2023/07/13 07:55:06;;;;;;;1.40;0.60;;;;;;;23.74;39.79;100460.03;4962712;28;20059;-75
2023/07/13 07:57:36;;;;;;;5.03;0.75;;;;;;;23.85;40.30;100468.88;4963006;28;20039;-74
2023/07/13 08:00:06;;;;;;;1.42;0.55;;;;;;;23.96;39.68;100471.34;4971371;28;20043;-74
2023/07/13 08:02:36;;;;;;;3.67;0.70;;;;;;;24.12;38.91;100450.69;4965228;28;20054;-75
2023/07/13 08:05:08;;;;;;;;;;;;;;;24.56;38.16;100476.88;4960464;28;20051;-75
2023/07/13 08:07:38;;;;;;;2.30;0.70;;;;;;;24.71;37.27;100465.28;4961166;28;19984;-75
2023/07/13 08:10:06;;;;;;;3.08;0.80;;;;;;;24.99;37.08;100474.13;4977899;28;20053;-74
2023/07/13 08:12:39;;;;;;;2.88;0.85;;;;;;;24.53;36.84;100478.09;4970640;28;20224;-76
2023/07/13 08:15:14;;;;;;;3.15;0.63;;;;;;;24.26;38.35;100484.47;4969191;28;20126;-76
2023/07/13 08:17:41;;;;;;;2.20;0.60;;;;;;;24.00;38.77;100481.69;4963225;28;20110;-75
2023/07/13 08:20:11;;;;;;;2.25;0.80;;;;;;;24.01;39.17;100471.72;4955870;28;20050;-75
2023/07/13 08:22:39;;;;;;;;;;;;;;;24.29;38.86;100475.19;4966434;28;20043;-75
2023/07/13 08:25:06;;;;;;;1.55;0.47;;;;;;;24.11;38.61;100448.97;4965794;28;19926;-75
2023/07/13 08:27:33;;;;;;;8.95;1.42;;;;;;;24.24;38.61;100472.94;4984786;28;20872;-75
2023/07/13 08:30:00;;;;;;;2.53;0.60;;;;;;;24.41;38.11;100447.69;4960309;28;20047;-76
2023/07/13 08:32:29;;;;;;;3.17;0.90;;;;;;;24.92;37.59;100466.75;4963497;28;20118;-76
2023/07/13 08:34:55;;;;;;;4.18;0.85;;;;;;;25.11;36.85;100478.22;4963844;28;20051;-75
2023/07/13 08:37:23;;;;;;;3.58;0.93;;;;;;;24.39;37.22;100468.69;4966557;28;20054;-74
2023/07/13 08:39:51;;;;;;;2.65;0.57;;;;;;;24.27;36.89;100466.38;4964497;28;21809;-74
2023/07/13 08:42:18;;;;;;;2.13;0.75;;;;;;;24.07;37.56;100477.38;4968958;28;20050;-74
2023/07/13 08:45:05;;;;;;;2.80;1.10;;;;;;;24.16;37.64;100464.75;4994079;28;20050;-74
2023/07/13 08:47:36;;;;;;;8.25;0.88;;;;;;;24.43;37.54;100452.97;4993761;28;20047;-74
2023/07/13 08:50:04;;;;;;;1.83;0.90;;;;;;;24.57;36.40;100457.78;4970640;28;20054;-74
2023/07/13 08:52:40;;;;;;;4.05;1.90;;;;;;;24.48;37.50;100467.72;4975382;28;20150;-75
2023/07/13 08:55:21;;;;;;;3.78;0.70;;;;;;;24.49;37.51;100473.97;4971979;28;20410;-75
2023/07/13 08:58:14;;;;;;;3.78;0.73;;;;;;;24.14;37.16;100456.78;4984741;28;20052;-75
2023/07/13 09:00:44;;;;;;;3.25;0.65;;;;;;;24.29;37.02;100462.50;4974379;28;20077;-75
2023/07/13 09:03:22;;;;;;;2.92;0.80;;;;;;;24.41;36.73;100458.53;4976891;28;20126;-74
2023/07/13 09:05:56;;;;;;;2.65;0.80;;;;;;;24.51;36.91;100457.59;4996786;28;20058;-77
2023/07/13 09:08:48;;;;;;;2.17;0.60;;;;;;;24.81;36.16;100459.78;4995099;28;20089;-75
2023/07/13 09:12:02;;;;;;;2.75;0.70;;;;;;;25.29;34.93;100469.13;4960565;28;20533;-74
2023/07/13 09:14:51;;;;;;;3.45;0.70;;;;;;;25.63;34.17;100450.09;4867251;29;20065;-76
2023/07/13 09:17:24;;;;;;;2.78;0.80;;;;;;;25.76;33.25;100447.72;4968912;28;20511;-75
2023/07/13 09:19:58;;;;;;;3.17;0.77;;;;;;;25.37;34.66;100418.50;4955322;28;20224;-73
2023/07/13 09:22:33;;;;;;;2.85;0.50;;;;;;;25.24;34.97;100452.50;4962620;28;20075;-74
2023/07/13 09:25:29;;;;;;;5.97;0.80;;;;;;;25.41;34.92;100457.81;4965569;28;20046;-72
2023/07/13 09:28:01;;;;;;;2.72;0.70;;;;;;;25.55;34.33;100459.03;4964890;28;20047;-75
2023/07/13 09:30:38;;;;;;;1.45;0.70;;;;;;;25.30;34.63;100454.56;4952669;28;20054;-73
2023/07/13 09:33:05;;;;;;;1.42;0.57;;;;;;;25.37;34.66;100452.88;4977690;28;20059;-73
2023/07/13 09:35:32;;;;;;;1.48;0.50;;;;;;;25.70;34.78;100451.97;4941191;28;20082;-73
2023/07/13 09:38:10;;;;;;;2.85;0.73;;;;;;;25.60;33.88;100439.56;4995460;28;20115;-73
2023/07/13 09:41:08;;;;;;;2.83;0.47;;;;;;;25.71;34.04;100452.81;4964928;28;20050;-73
2023/07/13 09:43:37;;;;;;;3.00;0.73;;;;;;;26.05;33.86;100455.38;4980122;28;20074;-72
2023/07/13 09:46:04;;;;;;;3.70;0.50;;;;;;;26.04;33.34;100432.81;4979003;28;20047;-73
2023/07/13 09:48:36;;;;;;;3.92;0.70;;;;;;;25.62;33.63;100453.81;4966480;28;20046;-73
2023/07/13 09:51:15;;;;;;;3.97;0.73;;;;;;;25.15;34.08;100465.19;4961765;28;20070;-72
2023/07/13 09:53:43;;;;;;;2.05;0.63;;;;;;;24.87;35.00;100461.00;4965856;28;20138;-71
2023/07/13 09:56:29;;;;;;;4.97;0.65;;;;;;;24.77;35.17;100456.53;4969786;28;20058;-73
2023/07/13 09:58:57;;;;;;;2.60;0.60;;;;;;;24.60;34.80;100446.63;4965821;28;20062;-73
2023/07/13 10:01:38;;;;;;;1.98;0.60;;;;;;;24.69;34.64;100461.94;4960009;28;20153;-73
2023/07/13 10:04:13;;;;;;;1.48;0.68;;;;;;;24.73;35.31;100465.13;4981690;28;20047;-73
2023/07/13 10:06:42;;;;;;;2.78;0.55;;;;;;;24.68;35.48;100451.25;4967214;28;20053;-73
2023/07/13 10:09:10;;;;;;;2.05;0.50;;;;;;;24.94;35.10;100460.19;4969488;28;20149;-74
2023/07/13 10:11:40;;;;;;;1.17;0.50;;;;;;;25.15;34.67;100448.94;4956203;28;20054;-74
2023/07/13 10:14:20;;;;;;;1.67;0.73;;;;;;;25.24;34.66;100456.06;4968276;28;20161;-74
2023/07/13 10:16:52;;;;;;;2.03;0.82;;;;;;;25.41;34.16;100456.97;4965976;28;20638;-74
2023/07/13 10:19:25;;;;;;;2.67;0.80;;;;;;;25.57;34.09;100432.59;4990775;28;20047;-73
2023/07/13 10:21:55;;;;;;;2.35;0.50;;;;;;;25.89;33.88;100412.81;4987753;28;20078;-74
2023/07/13 10:24:37;;;;;;;1.95;0.68;;;;;;;26.26;33.16;100447.56;4986884;28;20122;-71
2023/07/13 10:27:12;;;;;;;2.13;0.73;;;;;;;26.57;33.05;100450.41;4987988;28;20038;-70
2023/07/13 10:29:48;;;;;;;2.28;0.93;;;;;;;26.77;32.82;100442.69;5000448;28;20057;-69
2023/07/13 10:32:15;;;;;;;2.75;0.88;;;;;;;26.80;32.28;100445.91;4979721;28;20053;-69
2023/07/13 10:34:46;;;;;;;2.33;0.75;;;;;;;26.15;33.37;100440.59;4987258;28;20047;-69
2023/07/13 10:37:20;;;;;;;2.50;0.70;;;;;;;25.83;34.36;100446.03;4981850;28;20134;-68
2023/07/13 10:39:48;;;;;;;3.08;0.77;;;;;;;26.11;34.63;100454.69;4984781;28;20053;-68
2023/07/13 10:42:23;;;;;;;1.50;0.80;;;;;;;26.55;33.28;100447.00;4960989;28;20101;-68
2023/07/13 10:44:50;;;;;;;1.13;0.60;;;;;;;27.00;32.88;100450.97;4964993;28;20047;-68
2023/07/13 10:47:18;;;;;;;1.95;0.73;;;;;;;26.94;33.22;100440.78;4969026;28;20042;-68
2023/07/13 10:49:47;;;;;;;4.90;0.70;;;;;;;26.92;32.30;100449.91;4965851;28;20054;-69
2023/07/13 10:52:36;;;;;;;2.83;0.67;;;;;;;27.00;32.98;100449.09;4972983;28;20137;-68
2023/07/13 10:55:03;;;;;;;3.60;1.10;;;;;;;27.16;32.11;100449.00;4958114;28;20043;-69
2023/07/13 10:57:30;;;;;;;3.53;1.15;;;;;;;26.88;31.38;100448.59;4980593;28;20472;-69
2023/07/13 11:00:17;;;;;;;2.67;0.88;;;;;;;26.34;31.60;100449.44;4977156;28;20053;-71
2023/07/13 11:02:57;;;;;;;3.88;0.93;;;;;;;26.21;32.47;100448.06;4960991;28;20500;-70
2023/07/13 11:05:29;;;;;;;;;;;;;;;26.18;31.98;100451.09;4963690;28;20413;-70
2023/07/13 11:08:23;;;;;;;1.80;0.90;;;;;;;25.75;32.61;100459.59;4961514;28;20033;-70
2023/07/13 11:10:55;;;;;;;3.80;0.68;;;;;;;25.61;33.21;100449.38;4960979;28;20055;-70
2023/07/13 11:13:47;;;;;;;3.05;0.90;;;;;;;25.76;32.80;100451.28;4968939;28;20192;-69
2023/07/13 11:16:20;;;;;;;1.50;0.75;;;;;;;26.09;32.55;100445.88;4981841;28;20043;-69
2023/07/13 11:18:53;;;;;;;2.28;0.90;;;;;;;26.30;31.43;100457.06;4982715;28;20098;-69
2023/07/13 11:21:28;;;;;;;2.88;0.98;;;;;;;26.34;31.62;100444.84;4966014;28;20054;-68
2023/07/13 11:24:12;;;;;;;2.55;0.98;;;;;;;26.48;31.71;100451.44;4968113;28;20109;-69
2023/07/13 11:26:45;;;;;;;2.28;1.50;;;;;;;26.76;30.84;100455.41;4962452;28;20248;-71
2023/07/13 11:29:31;;;;;;;2.58;0.90;;;;;;;26.54;30.79;100437.16;4961778;28;20204;-70
2023/07/13 11:32:01;;;;;;;1.73;1.10;;;;;;;26.14;31.69;100451.63;4958640;28;20046;-69
2023/07/13 11:34:33;;;;;;;2.90;0.95;;;;;;;25.78;32.13;100448.41;4964131;28;20074;-71
2023/07/13 11:37:00;;;;;;;2.22;1.20;;;;;;;25.74;31.68;100452.47;4962150;28;20043;-71
2023/07/13 11:39:36;;;;;;;3.78;1.30;;;;;;;25.90;30.54;100454.34;4961514;28;20097;-70